CheckWX is a tool to help pilots better visualize weather data.  It is not intended as a substitute for an official pre-flight weather briefing.

14:55:38 UTC

DTTZ TAF
Tozeur Nefta International Airport
Tozeur, Tunisia
TAF DTTZ 191100Z 1912/2012 VRB03KT CAVOK BECMG 1912/1914 26006KT BECMG 1923/2001 09010KT

Nov-19@
12:00 UTC

Nov-19 @ 12:00 UTC

Nov-20@
12:00 UTC

Nov-20 @ 12:00 UTC

TAF DTTZ 191100Z 1912/2012 VRB03KT CAVOK
Wind
  • Variable at 3 KTS
Conditions
No significant weather
Cloud Levels
  • No significant clouds

Nov-19@
12:00 UTC

Nov-19 @ 12:00 UTC

Nov-19@
23:00 UTC

Nov-19 @ 23:00 UTC

BECMG 1912/1914 26006KT

Becoming

Becoming Conditions expected by Tue, Nov 19, 2019 @ 14:00 UTC

Wind
  • 260° at 6 KTS
Conditions
No significant weather
Cloud Levels
  • No significant clouds

Nov-19@
23:00 UTC

Nov-19 @ 23:00 UTC

Nov-20@
12:00 UTC

Nov-20 @ 12:00 UTC

BECMG 1923/2001 09010KT

Becoming

Becoming Conditions expected by Wed, Nov 20, 2019 @ 01:00 UTC

Wind
  • 090° at 10 KTS
Conditions
No significant weather
Cloud Levels
  • No significant clouds